Time;durP1;ratioP1;P1;durP2;ratioP2;P2;SDS_P1;SDS_P2;PMS_P1;PMS_P2;Temp;Humidity;BMP_temperature;BMP_pressure;BME280_temperature;BME280_humidity;BME280_pressure;Samples;Min_cycle;Max_cycle;Signal;HPM_P1;HPM_P2
2022/10/23 00:01:14;;;;;;;15.88;10.48;;;12.30;81.90;;;;;;5040199;28;20128;-75
2022/10/23 00:03:40;;;;;;;17.98;11.73;;;12.30;82.00;;;;;;5034657;28;20060;-75
2022/10/23 00:06:06;;;;;;;15.35;11.57;;;12.30;82.10;;;;;;5050879;28;20480;-75
2022/10/23 00:08:32;;;;;;;18.42;11.35;;;12.30;82.20;;;;;;5055985;28;20028;-75
2022/10/23 00:10:57;;;;;;;18.02;11.45;;;12.30;82.30;;;;;;5043764;28;20083;-75
2022/10/23 00:13:23;;;;;;;21.52;12.70;;;12.30;82.40;;;;;;5055052;28;20044;-75
2022/10/23 00:15:49;;;;;;;13.15;10.10;;;12.30;82.50;;;;;;5038821;28;20040;-75
2022/10/23 00:18:14;;;;;;;13.77;10.50;;;12.30;83.00;;;;;;5055180;28;20399;-75
2022/10/23 00:20:40;;;;;;;11.02;7.70;;;12.30;82.60;;;;;;5055217;28;20033;-74
2022/10/23 00:23:06;;;;;;;8.55;7.65;;;12.30;82.70;;;;;;5038273;28;20123;-75
2022/10/23 00:25:32;;;;;;;15.38;8.02;;;12.30;82.70;;;;;;5021983;28;20037;-75
2022/10/23 00:27:58;;;;;;;16.55;11.57;;;12.30;82.80;;;;;;5039502;28;20041;-75
2022/10/23 00:30:24;;;;;;;14.65;10.77;;;12.30;82.80;;;;;;5088448;28;20033;-75
2022/10/23 00:32:49;;;;;;;16.65;12.00;;;12.30;82.80;;;;;;5054545;28;20400;-75
2022/10/23 00:35:16;;;;;;;9.75;8.25;;;12.30;82.80;;;;;;5054788;28;20124;-75
2022/10/23 00:37:41;;;;;;;10.55;9.07;;;12.30;82.80;;;;;;5054482;28;20037;-75
2022/10/23 00:40:08;;;;;;;10.85;7.75;;;12.30;82.80;;;;;;5021593;28;20040;-74
2022/10/23 00:42:33;;;;;;;9.55;6.65;;;12.30;82.80;;;;;;5021729;28;20037;-75
2022/10/23 00:45:25;;;;;;;13.73;9.00;;;12.30;82.80;;;;;;5038005;28;20041;-75
2022/10/23 00:47:51;;;;;;;11.90;7.18;;;12.30;82.70;;;;;;5053751;28;20044;-75
2022/10/23 00:50:18;;;;;;;9.50;6.70;;;12.30;82.80;;;;;;5085081;28;20562;-74
2022/10/23 00:52:52;;;;;;;10.00;8.35;;;12.30;82.70;;;;;;5038023;28;20057;-74
2022/10/23 00:55:21;;;;;;;11.27;7.13;;;12.30;82.70;;;;;;5054382;28;20492;-74
2022/10/23 00:57:48;;;;;;;11.85;7.25;;;12.30;82.60;;;;;;5087782;28;20131;-74
2022/10/23 01:00:29;;;;;;;8.30;6.15;;;12.30;82.60;;;;;;5037890;28;20048;-74
2022/10/23 01:02:56;;;;;;;8.15;6.22;;;12.30;83.00;;;;;;5037717;28;20041;-74
2022/10/23 01:05:29;;;;;;;7.38;6.10;;;12.30;82.50;;;;;;5021074;28;20072;-74
2022/10/23 01:08:08;;;;;;;10.95;8.15;;;12.30;82.40;;;;;;5048376;28;20036;-74
2022/10/23 01:10:41;;;;;;;8.20;6.38;;;12.30;82.30;;;;;;5050317;28;20083;-74
2022/10/23 01:14:04;;;;;;;10.60;7.82;;;12.30;82.20;;;;;;5039476;28;20041;-74
2022/10/23 01:16:51;;;;;;;9.30;6.63;;;12.30;81.90;;;;;;4980623;28;20146;-74
2022/10/23 01:19:42;;;;;;;14.77;10.30;;;12.30;82.10;;;;;;4996701;28;20042;-74
2022/10/23 01:22:46;;;;;;;13.30;10.45;;;12.30;81.90;;;;;;5048162;28;20508;-74
2022/10/23 01:25:46;;;;;;;12.60;9.73;;;12.30;81.90;;;;;;5045364;28;20068;-74
2022/10/23 01:28:21;;;;;;;9.20;8.30;;;12.30;81.80;;;;;;5055920;28;20107;-74
2022/10/23 01:30:47;;;;;;;;;;;12.30;81.90;;;;;;5054158;28;20041;-74
2022/10/23 01:33:20;;;;;;;13.13;9.20;;;12.20;81.60;;;;;;5087298;28;19937;-74
2022/10/23 01:35:49;;;;;;;8.83;6.63;;;12.20;82.00;;;;;;5053649;28;20040;-74
2022/10/23 01:38:30;;;;;;;11.88;10.02;;;12.20;82.10;;;;;;5056106;28;20049;-74
2022/10/23 01:41:06;;;;;;;15.60;11.02;;;12.20;82.10;;;;;;5053512;28;20084;-74
2022/10/23 01:43:51;;;;;;;13.00;10.75;;;12.20;82.20;;;;;;5037232;28;20045;-74
2022/10/23 01:46:17;;;;;;;16.23;11.75;;;12.20;82.10;;;;;;5053135;28;20049;-74
2022/10/23 01:48:50;;;;;;;14.18;10.68;;;12.20;82.60;;;;;;5053180;28;20048;-74
2022/10/23 01:51:18;;;;;;;16.00;12.13;;;12.20;82.20;;;;;;5053188;28;20045;-74
2022/10/23 01:53:46;;;;;;;15.60;11.23;;;12.20;82.20;;;;;;5018312;28;20044;-74
2022/10/23 01:56:17;;;;;;;10.82;8.32;;;12.20;82.30;;;;;;5065584;28;20120;-74
2022/10/23 01:58:47;;;;;;;12.20;8.88;;;12.10;82.30;;;;;;5071255;28;20124;-74
2022/10/23 02:01:14;;;;;;;10.75;7.85;;;12.10;82.40;;;;;;5069838;28;20041;-74
2022/10/23 02:03:42;;;;;;;8.63;7.10;;;12.10;82.40;;;;;;5058904;28;20128;-74
2022/10/23 02:06:08;;;;;;;12.55;10.65;;;12.10;82.50;;;;;;5053188;28;20063;-74
2022/10/23 02:08:34;;;;;;;14.07;11.05;;;12.20;82.90;;;;;;5052854;28;20492;-74
2022/10/23 02:11:07;;;;;;;10.32;8.48;;;12.10;82.40;;;;;;5041334;28;20033;-74
2022/10/23 02:13:40;;;;;;;12.55;8.93;;;12.10;82.40;;;;;;5069336;28;20041;-74
2022/10/23 02:16:29;;;;;;;8.80;7.55;;;12.10;82.50;;;;;;5052814;28;20041;-74
2022/10/23 02:19:13;;;;;;;9.75;8.25;;;12.10;82.50;;;;;;5051073;28;20067;-74
2022/10/23 02:21:51;;;;;;;15.68;11.52;;;12.10;82.50;;;;;;5036055;28;20037;-74
2022/10/23 02:24:31;;;;;;;11.20;9.32;;;12.10;82.50;;;;;;5044660;28;20064;-74
2022/10/23 02:27:01;;;;;;;6.93;6.22;;;12.10;82.50;;;;;;5052132;28;20033;-74
2022/10/23 02:29:38;;;;;;;9.27;6.53;;;12.10;82.50;;;;;;5052278;28;20037;-74
2022/10/23 02:32:07;;;;;;;8.05;6.45;;;12.10;82.50;;;;;;5035700;28;20033;-74
2022/10/23 02:34:32;;;;;;;8.60;6.43;;;12.10;82.50;;;;;;5065913;28;20384;-74
2022/10/23 02:36:58;;;;;;;9.50;7.88;;;12.10;82.50;;;;;;5056090;28;20043;-74
2022/10/23 02:39:26;;;;;;;7.15;5.70;;;12.10;82.40;;;;;;5035529;28;20044;-74
2022/10/23 02:42:13;;;;;;;7.63;6.82;;;12.10;82.40;;;;;;5052490;28;20040;-74
2022/10/23 02:45:00;;;;;;;11.60;8.20;;;12.10;82.50;;;;;;5052863;28;20067;-74
2022/10/23 02:47:51;;;;;;;8.27;7.40;;;12.10;82.40;;;;;;5052244;28;20056;-74
2022/10/23 02:50:26;;;;;;;6.55;5.53;;;12.00;82.20;;;;;;5052640;28;20543;-74
2022/10/23 02:53:10;;;;;;;8.68;7.85;;;12.10;82.30;;;;;;5037998;28;20047;-74
2022/10/23 02:55:36;;;;;;;;;;;12.10;82.20;;;;;;5060867;28;20052;-74
2022/10/23 02:58:20;;;;;;;12.15;10.05;;;12.00;81.80;;;;;;5051886;28;19917;-74
2022/10/23 03:00:53;;;;;;;14.90;11.73;;;12.00;82.20;;;;;;5043771;28;20079;-74
2022/10/23 03:03:25;;;;;;;16.58;11.75;;;12.00;82.30;;;;;;5052456;28;20800;-74
2022/10/23 03:05:51;;;;;;;15.05;12.32;;;12.00;82.70;;;;;;5085601;28;20495;-74
2022/10/23 03:08:17;;;;;;;19.25;12.70;;;12.10;82.50;;;;;;5068540;28;20511;-74
2022/10/23 03:10:43;;;;;;;17.88;13.55;;;12.00;82.50;;;;;;5068544;28;20049;-74
2022/10/23 03:13:10;;;;;;;22.58;14.57;;;12.00;82.70;;;;;;5054752;28;20479;-74
2022/10/23 03:15:35;;;;;;;16.65;14.30;;;12.10;82.90;;;;;;5036471;28;20357;-74
2022/10/23 03:18:01;;;;;;;19.65;13.27;;;12.00;82.90;;;;;;5051961;28;20044;-74
2022/10/23 03:20:27;;;;;;;18.60;14.70;;;12.00;83.10;;;;;;5084860;28;20037;-74
2022/10/23 03:22:53;;;;;;;16.40;13.80;;;12.00;83.20;;;;;;5053970;28;20076;-74
2022/10/23 03:25:18;;;;;;;19.27;14.32;;;12.00;83.20;;;;;;5048786;28;20048;-74
2022/10/23 03:27:44;;;;;;;14.88;12.93;;;12.00;83.30;;;;;;5035003;28;20052;-74
2022/10/23 03:30:10;;;;;;;17.40;11.95;;;12.00;83.40;;;;;;5050967;28;20049;-74
2022/10/23 03:32:35;;;;;;;19.80;15.20;;;12.00;83.40;;;;;;5051541;28;20091;-74
2022/10/23 03:35:01;;;;;;;22.45;15.52;;;12.00;83.50;;;;;;5060101;28;20037;-74
2022/10/23 03:37:27;;;;;;;17.05;12.90;;;12.00;83.50;;;;;;5018634;28;20041;-74
2022/10/23 03:39:52;;;;;;;19.70;14.23;;;12.00;83.50;;;;;;5051322;28;20048;-74
2022/10/23 03:42:18;;;;;;;21.45;14.52;;;12.00;83.50;;;;;;5034752;28;20055;-74
2022/10/23 03:44:44;;;;;;;19.77;14.50;;;12.00;83.50;;;;;;5037172;28;20063;-74
2022/10/23 03:47:10;;;;;;;17.15;13.05;;;12.00;83.60;;;;;;5068043;28;20147;-74
2022/10/23 03:49:39;;;;;;;18.48;14.38;;;12.00;83.50;;;;;;5051138;28;20056;-74
2022/10/23 03:52:06;;;;;;;16.70;13.90;;;12.00;84.00;;;;;;5051628;28;20126;-74
2022/10/23 03:54:32;;;;;;;17.38;13.32;;;12.00;83.50;;;;;;5067728;28;20082;-74
2022/10/23 03:56:58;;;;;;;18.33;13.75;;;12.00;83.50;;;;;;5067853;28;20041;-74
2022/10/23 03:59:24;;;;;;;17.13;13.88;;;12.00;83.60;;;;;;5067233;28;20045;-74
2022/10/23 04:01:50;;;;;;;19.55;14.38;;;12.00;83.60;;;;;;5051133;28;20047;-74
2022/10/23 04:04:16;;;;;;;17.83;13.63;;;12.00;83.50;;;;;;5051207;28;20123;-74
2022/10/23 04:06:41;;;;;;;19.42;15.30;;;12.00;83.50;;;;;;5051294;28;20037;-74
2022/10/23 04:09:08;;;;;;;21.33;15.82;;;11.90;83.50;;;;;;5067374;28;20685;-74
2022/10/23 04:11:34;;;;;;;17.42;13.95;;;11.90;83.50;;;;;;5050965;28;20040;-74
2022/10/23 04:14:00;;;;;;;18.27;14.18;;;11.90;83.40;;;;;;5042512;28;20036;-74
2022/10/23 04:16:26;;;;;;;16.58;12.75;;;11.90;83.50;;;;;;5034387;28;20075;-74
2022/10/23 04:18:51;;;;;;;16.80;12.57;;;11.90;83.50;;;;;;5067351;28;20140;-74
2022/10/23 04:21:17;;;;;;;16.08;12.32;;;11.90;83.50;;;;;;5051057;28;20055;-74
2022/10/23 04:23:43;;;;;;;15.10;12.57;;;11.90;83.50;;;;;;5051095;28;20049;-74
2022/10/23 04:26:09;;;;;;;15.27;12.52;;;11.90;83.50;;;;;;5050811;28;20033;-74
2022/10/23 04:28:34;;;;;;;13.13;11.38;;;11.90;83.50;;;;;;5050595;28;20119;-73
2022/10/23 04:31:00;;;;;;;17.65;12.77;;;11.90;83.50;;;;;;5017781;28;20481;-74
2022/10/23 04:33:26;;;;;;;14.57;12.07;;;11.90;83.40;;;;;;5050965;28;20073;-74
2022/10/23 04:35:52;;;;;;;17.27;11.77;;;11.90;83.40;;;;;;5034445;28;20044;-73
2022/10/23 04:38:17;;;;;;;15.10;12.60;;;11.90;83.40;;;;;;5049704;28;20109;-74
2022/10/23 04:40:43;;;;;;;17.60;13.73;;;11.90;83.40;;;;;;5034449;28;20068;-74
2022/10/23 04:43:09;;;;;;;17.52;13.90;;;11.80;83.30;;;;;;5050665;28;20037;-74
2022/10/23 04:45:34;;;;;;;17.08;13.05;;;11.80;83.20;;;;;;5050817;28;20036;-74
2022/10/23 04:48:00;;;;;;;15.02;12.88;;;11.80;83.20;;;;;;5034310;28;20098;-74
2022/10/23 04:50:26;;;;;;;16.45;11.90;;;11.80;83.20;;;;;;5020228;28;20053;-74
2022/10/23 04:52:56;;;;;;;17.17;14.25;;;11.80;83.10;;;;;;5033908;28;20052;-74
2022/10/23 04:55:24;;;;;;;16.98;13.50;;;11.80;83.20;;;;;;5057186;28;20044;-75
2022/10/23 04:57:50;;;;;;;14.82;12.90;;;11.80;83.20;;;;;;5059145;28;20120;-74
2022/10/23 05:00:16;;;;;;;16.23;13.20;;;11.80;83.20;;;;;;5021347;28;20040;-74
2022/10/23 05:02:42;;;;;;;15.95;12.75;;;11.80;83.20;;;;;;5054250;28;20044;-74
2022/10/23 05:05:08;;;;;;;11.93;8.48;;;11.70;83.10;;;;;;5088109;28;20048;-74
2022/10/23 05:07:35;;;;;;;11.77;7.93;;;11.70;83.10;;;;;;5070778;28;20451;-74
2022/10/23 05:10:02;;;;;;;10.73;8.52;;;11.70;83.10;;;;;;5087175;28;20158;-73
2022/10/23 05:12:28;;;;;;;11.05;8.02;;;11.80;83.20;;;;;;5053977;28;20524;-73
2022/10/23 05:14:53;;;;;;;13.32;9.82;;;11.80;83.20;;;;;;5054058;28;20071;-73
2022/10/23 05:17:24;;;;;;;11.27;8.73;;;11.80;83.20;;;;;;5053826;28;20078;-73
2022/10/23 05:19:53;;;;;;;19.33;13.85;;;11.70;83.20;;;;;;5070149;28;20102;-74
2022/10/23 05:22:23;;;;;;;17.27;12.90;;;11.70;83.10;;;;;;5053733;28;20029;-74
2022/10/23 05:24:49;;;;;;;10.77;8.50;;;11.70;83.10;;;;;;5054033;28;20396;-74
2022/10/23 05:27:15;;;;;;;11.05;8.25;;;11.80;83.10;;;;;;5036912;28;20747;-74
2022/10/23 05:29:40;;;;;;;9.95;8.95;;;11.80;83.10;;;;;;5059843;28;20040;-74
2022/10/23 05:32:09;;;;;;;10.80;8.52;;;11.70;83.00;;;;;;5053473;28;20041;-74
2022/10/23 05:34:37;;;;;;;11.95;9.00;;;11.80;83.10;;;;;;5053720;28;20033;-74
2022/10/23 05:37:04;;;;;;;10.05;8.25;;;11.70;82.90;;;;;;5053532;28;20045;-74
2022/10/23 05:39:31;;;;;;;12.00;9.07;;;11.70;82.90;;;;;;5079110;28;20029;-74
2022/10/23 05:41:57;;;;;;;10.43;8.25;;;11.70;82.80;;;;;;5053921;28;20443;-74
2022/10/23 05:44:23;;;;;;;10.48;8.27;;;11.70;82.70;;;;;;5020434;28;20094;-74
2022/10/23 05:46:48;;;;;;;10.05;8.65;;;11.70;82.60;;;;;;5036981;28;20037;-75
2022/10/23 05:49:14;;;;;;;12.10;9.82;;;11.70;82.50;;;;;;5052245;28;20107;-75
2022/10/23 05:51:40;;;;;;;10.05;8.65;;;11.70;82.40;;;;;;5036796;28;20045;-75
2022/10/23 05:54:07;;;;;;;11.40;9.45;;;11.70;82.30;;;;;;5036762;28;20043;-75
2022/10/23 05:56:34;;;;;;;10.35;7.68;;;11.70;82.20;;;;;;5052937;28;20029;-75
2022/10/23 05:59:00;;;;;;;9.57;8.25;;;11.70;82.20;;;;;;5052634;28;20481;-75
2022/10/23 06:01:25;;;;;;;13.40;11.00;;;11.70;82.20;;;;;;5053143;28;20041;-76
2022/10/23 06:03:51;;;;;;;15.45;11.85;;;11.70;82.10;;;;;;5036641;28;20041;-75
2022/10/23 06:06:17;;;;;;;17.83;13.50;;;11.60;82.00;;;;;;5036617;28;20045;-75
2022/10/23 06:08:42;;;;;;;18.75;12.77;;;11.60;82.10;;;;;;5036066;28;20119;-75
2022/10/23 06:11:13;;;;;;;20.88;13.95;;;11.60;82.30;;;;;;5036375;28;20044;-75
2022/10/23 06:13:42;;;;;;;19.10;13.43;;;11.60;82.50;;;;;;5052919;28;20041;-75
2022/10/23 06:16:12;;;;;;;18.35;13.73;;;11.60;82.70;;;;;;5086445;28;20040;-75
2022/10/23 06:18:38;;;;;;;21.00;14.25;;;11.60;83.00;;;;;;5065083;28;20038;-75
2022/10/23 06:21:03;;;;;;;20.48;14.32;;;11.60;83.00;;;;;;5045211;28;20110;-75
2022/10/23 06:23:33;;;;;;;19.20;14.20;;;11.60;83.20;;;;;;5036002;28;20041;-75
2022/10/23 06:25:58;;;;;;;23.92;15.35;;;11.60;83.30;;;;;;5053025;28;20033;-75
2022/10/23 06:28:24;;;;;;;21.02;14.40;;;11.60;83.40;;;;;;5068759;28;20511;-75
2022/10/23 06:30:50;;;;;;;18.50;14.20;;;11.60;83.60;;;;;;5035833;28;20460;-75
2022/10/23 06:33:15;;;;;;;26.98;15.13;;;11.60;83.70;;;;;;5035894;28;20052;-75
2022/10/23 06:35:41;;;;;;;21.50;14.50;;;11.60;83.80;;;;;;5035944;28;20087;-75
2022/10/23 06:38:09;;;;;;;20.60;15.82;;;11.60;84.00;;;;;;5019711;28;20083;-75
2022/10/23 06:40:35;;;;;;;20.77;14.88;;;11.60;84.10;;;;;;5066221;28;20036;-75
2022/10/23 06:43:01;;;;;;;21.67;15.27;;;11.60;84.30;;;;;;5056591;28;20503;-75
2022/10/23 06:45:28;;;;;;;23.73;15.98;;;11.60;84.50;;;;;;5052045;28;20044;-75
2022/10/23 06:47:54;;;;;;;24.08;16.08;;;11.60;84.60;;;;;;5036101;28;20072;-75
2022/10/23 06:50:20;;;;;;;24.85;15.95;;;11.60;84.80;;;;;;5066995;28;20111;-75
2022/10/23 06:52:46;;;;;;;21.20;16.00;;;11.60;84.90;;;;;;5052568;28;20116;-75
2022/10/23 06:55:12;;;;;;;20.80;14.82;;;11.60;85.00;;;;;;5052391;28;20040;-75
2022/10/23 06:57:37;;;;;;;27.42;16.15;;;11.70;85.10;;;;;;5068392;28;20037;-75
2022/10/23 07:00:04;;;;;;;22.75;15.95;;;11.70;85.30;;;;;;5067141;28;20111;-75
2022/10/23 07:02:29;;;;;;;21.33;15.48;;;11.70;85.30;;;;;;5051926;28;20041;-75
2022/10/23 07:04:55;;;;;;;25.55;16.02;;;11.70;85.40;;;;;;5068314;28;20527;-74
2022/10/23 07:07:21;;;;;;;23.02;16.30;;;11.80;85.50;;;;;;5052071;28;20049;-74
2022/10/23 07:09:46;;;;;;;24.80;17.08;;;11.80;85.60;;;;;;5051470;28;20061;-74
2022/10/23 07:12:12;;;;;;;27.40;16.70;;;11.80;85.70;;;;;;5051688;28;20041;-74
2022/10/23 07:14:38;;;;;;;28.52;16.52;;;11.80;85.80;;;;;;5052116;28;20029;-74
2022/10/23 07:17:03;;;;;;;28.38;16.30;;;11.80;85.80;;;;;;5068444;28;20033;-74
2022/10/23 07:19:29;;;;;;;25.63;17.40;;;11.80;85.80;;;;;;5067826;28;20040;-74
2022/10/23 07:21:55;;;;;;;22.17;15.50;;;11.80;85.90;;;;;;5068497;28;20052;-77
2022/10/23 07:24:21;;;;;;;23.67;14.80;;;11.90;86.00;;;;;;5068926;28;20033;-74
2022/10/23 07:26:46;;;;;;;22.27;16.17;;;11.90;86.00;;;;;;5045826;28;20255;-74
2022/10/23 07:29:12;;;;;;;22.48;16.63;;;11.90;86.10;;;;;;5051388;28;20051;-74
2022/10/23 07:31:38;;;;;;;24.83;15.85;;;11.90;86.10;;;;;;5034953;28;20033;-74
2022/10/23 07:34:05;;;;;;;27.17;16.95;;;11.90;86.10;;;;;;5034746;28;20572;-73
2022/10/23 07:36:31;;;;;;;17.80;15.40;;;11.90;86.10;;;;;;5034846;28;20037;-73
2022/10/23 07:38:57;;;;;;;27.35;16.85;;;11.90;86.10;;;;;;5050609;28;20531;-72
2022/10/23 07:41:22;;;;;;;23.02;14.65;;;12.00;86.20;;;;;;5060815;28;20040;-72
2022/10/23 07:43:48;;;;;;;21.08;14.65;;;12.00;86.30;;;;;;5030823;28;20044;-73
2022/10/23 07:46:14;;;;;;;24.60;15.65;;;12.00;86.30;;;;;;5051226;28;20068;-73
2022/10/23 07:48:39;;;;;;;19.00;15.45;;;12.00;86.20;;;;;;5055331;28;20070;-73
2022/10/23 07:51:13;;;;;;;22.20;15.57;;;12.00;86.20;;;;;;5032424;28;20060;-74
2022/10/23 07:53:39;;;;;;;22.33;14.77;;;12.00;86.30;;;;;;5051098;28;20048;-73
2022/10/23 07:56:14;;;;;;;19.38;15.07;;;12.10;86.30;;;;;;5084190;28;20041;-73
2022/10/23 07:58:39;;;;;;;18.33;14.50;;;12.10;86.40;;;;;;5034497;28;20072;-73
2022/10/23 08:01:15;;;;;;;22.42;16.42;;;12.10;86.30;;;;;;5050621;28;20072;-73
2022/10/23 08:03:40;;;;;;;23.45;15.45;;;12.20;86.50;;;;;;5081063;28;20040;-73
2022/10/23 08:06:06;;;;;;;121.28;74.50;;;12.20;86.40;;;;;;5050858;28;20047;-74
2022/10/23 08:08:32;;;;;;;28.98;21.38;;;12.20;86.40;;;;;;5051061;28;20059;-74
2022/10/23 08:10:58;;;;;;;21.55;15.77;;;12.30;86.50;;;;;;5050784;28;20045;-74
2022/10/23 08:13:23;;;;;;;26.70;16.92;;;12.30;86.50;;;;;;5051152;28;20098;-74
2022/10/23 08:15:51;;;;;;;21.52;15.10;;;12.30;86.50;;;;;;5067195;28;20044;-74
2022/10/23 08:18:17;;;;;;;20.15;14.80;;;12.30;86.60;;;;;;5033825;28;20040;-74
2022/10/23 08:20:45;;;;;;;21.00;14.05;;;12.40;86.70;;;;;;5083283;28;20400;-74
2022/10/23 08:23:12;;;;;;;25.40;15.75;;;12.40;86.70;;;;;;5050426;28;20037;-74
2022/10/23 08:25:39;;;;;;;18.67;14.15;;;12.40;86.70;;;;;;5066633;28;20044;-74
2022/10/23 08:28:05;;;;;;;19.55;15.18;;;12.50;86.80;;;;;;5051333;28;20045;-74
2022/10/23 08:30:31;;;;;;;19.98;14.07;;;12.50;86.80;;;;;;5033769;28;20045;-74
2022/10/23 08:32:57;;;;;;;22.73;15.15;;;12.50;86.80;;;;;;5037262;28;20131;-74
2022/10/23 08:35:23;;;;;;;20.45;15.23;;;12.60;86.80;;;;;;5038360;28;20049;-74
2022/10/23 08:37:49;;;;;;;20.27;14.35;;;12.60;86.80;;;;;;5064108;28;20609;-74
2022/10/23 08:40:17;;;;;;;18.73;14.40;;;12.60;86.80;;;;;;5054680;28;20041;-74
2022/10/23 08:42:48;;;;;;;19.15;14.88;;;12.70;86.90;;;;;;5054774;28;20145;-74
2022/10/23 08:45:38;;;;;;;19.33;15.10;;;12.70;86.90;;;;;;5088299;28;20068;-74
2022/10/23 08:48:24;;;;;;;18.25;14.63;;;12.70;86.90;;;;;;5070801;28;20048;-74
2022/10/23 08:50:59;;;;;;;17.20;13.77;;;12.80;87.40;;;;;;5053394;28;20056;-74
2022/10/23 08:53:31;;;;;;;19.95;14.10;;;12.80;87.00;;;;;;5087571;28;20080;-74
2022/10/23 08:56:13;;;;;;;19.55;13.98;;;12.90;87.10;;;;;;5055524;28;20069;-74
2022/10/23 08:58:52;;;;;;;22.45;13.07;;;12.90;87.10;;;;;;5078066;28;20554;-74
2022/10/23 09:01:37;;;;;;;14.43;12.07;;;13.00;87.20;;;;;;5055627;28;20037;-74
2022/10/23 09:04:04;;;;;;;18.38;13.20;;;13.10;87.60;;;;;;5054151;28;20048;-74
2022/10/23 09:06:39;;;;;;;18.83;11.70;;;13.10;87.00;;;;;;5037221;28;20047;-74
2022/10/23 09:09:08;;;;;;;18.63;12.35;;;13.20;87.10;;;;;;5054137;28;20496;-74
2022/10/23 09:12:22;;;;;;;15.23;12.23;;;13.20;86.90;;;;;;5037199;28;20049;-74
2022/10/23 09:15:09;;;;;;;18.30;10.95;;;13.30;87.00;;;;;;5060606;28;20051;-74
2022/10/23 09:17:38;;;;;;;17.52;12.15;;;13.40;87.00;;;;;;5054180;28;20033;-78
2022/10/23 09:20:21;;;;;;;16.48;11.63;;;13.40;86.90;;;;;;5054568;28;20528;-78
2022/10/23 09:22:49;;;;;;;13.63;10.90;;;13.50;86.90;;;;;;5052932;28;20049;-78
2022/10/23 09:25:39;;;;;;;14.82;11.43;;;13.50;86.80;;;;;;5048765;28;20075;-78
2022/10/23 09:28:05;;;;;;;15.00;11.55;;;13.60;86.80;;;;;;5054229;28;20448;-78
2022/10/23 09:30:35;;;;;;;15.50;10.60;;;13.60;86.70;;;;;;5068223;28;20051;-78
2022/10/23 09:33:20;;;;;;;15.88;10.93;;;13.70;86.70;;;;;;5059113;28;20108;-78
2022/10/23 09:35:57;;;;;;;13.13;10.00;;;13.70;86.50;;;;;;5056713;28;20097;-78
2022/10/23 09:38:30;;;;;;;13.98;9.82;;;13.80;86.50;;;;;;5067736;28;20112;-78
2022/10/23 09:41:06;;;;;;;12.07;9.43;;;13.90;86.40;;;;;;5063704;28;20102;-78
2022/10/23 09:43:32;;;;;;;17.23;9.95;;;13.90;86.30;;;;;;5060200;28;20086;-78
2022/10/23 09:46:03;;;;;;;12.15;10.07;;;14.00;86.20;;;;;;5056213;28;20435;-78
2022/10/23 09:48:30;;;;;;;15.63;9.85;;;14.00;86.00;;;;;;5065646;28;20037;-78
2022/10/23 09:50:58;;;;;;;12.23;9.02;;;14.10;85.90;;;;;;5049325;28;20455;-78
2022/10/23 09:53:38;;;;;;;13.07;9.38;;;14.10;85.70;;;;;;5033243;28;20657;-79
2022/10/23 09:56:25;;;;;;;13.20;9.00;;;14.20;85.60;;;;;;5050077;28;20115;-78
2022/10/23 09:59:01;;;;;;;10.23;8.45;;;14.20;85.40;;;;;;5050157;28;20048;-78
2022/10/23 10:01:34;;;;;;;12.68;7.88;;;14.30;85.30;;;;;;5032485;28;20127;-78
2022/10/23 10:04:01;;;;;;;11.95;8.57;;;14.30;85.20;;;;;;5066529;28;20508;-78
2022/10/23 10:06:32;;;;;;;11.27;8.35;;;14.40;85.10;;;;;;5048410;28;20045;-79
2022/10/23 10:09:01;;;;;;;12.82;7.78;;;14.40;85.00;;;;;;5048661;28;20048;-78
2022/10/23 10:11:26;;;;;;;12.35;8.75;;;14.50;84.80;;;;;;5031653;28;20055;-78
2022/10/23 10:14:29;;;;;;;11.75;7.60;;;14.50;84.70;;;;;;5049695;28;20029;-78
2022/10/23 10:16:55;;;;;;;12.95;8.05;;;14.60;84.40;;;;;;5047922;28;20037;-78
2022/10/23 10:19:32;;;;;;;12.63;7.88;;;14.60;84.40;;;;;;5076026;28;20032;-78
2022/10/23 10:22:20;;;;;;;12.43;7.55;;;14.60;84.20;;;;;;5049169;28;20048;-79
2022/10/23 10:24:57;;;;;;;11.82;7.35;;;14.70;84.00;;;;;;5082610;28;20029;-78
2022/10/23 10:27:48;;;;;;;10.43;6.65;;;14.80;84.00;;;;;;5049494;28;20075;-78
2022/10/23 10:30:20;;;;;;;8.32;6.32;;;14.80;83.70;;;;;;5040601;28;20057;-78
2022/10/23 10:32:54;;;;;;;12.65;6.78;;;14.90;83.80;;;;;;5048958;28;20505;-78
2022/10/23 10:35:39;;;;;;;9.88;7.35;;;14.90;83.60;;;;;;5062702;28;20094;-78
2022/10/23 10:38:19;;;;;;;12.00;7.07;;;15.00;83.20;;;;;;5048136;28;20124;-78
2022/10/23 10:41:05;;;;;;;10.77;6.18;;;15.00;83.20;;;;;;5049514;28;20484;-78
2022/10/23 10:43:43;;;;;;;9.73;6.53;;;15.00;83.20;;;;;;5038463;28;20060;-78
2022/10/23 10:46:43;;;;;;;12.98;6.40;;;15.10;83.10;;;;;;5048950;28;20052;-78
2022/10/23 10:49:28;;;;;;;11.77;5.82;;;15.10;82.60;;;;;;5032945;28;20052;-78
2022/10/23 10:52:20;;;;;;;11.23;6.15;;;15.20;82.70;;;;;;5048968;28;20049;-78
2022/10/23 10:55:14;;;;;;;7.90;6.00;;;15.20;83.00;;;;;;5047287;28;20034;-78
2022/10/23 10:57:50;;;;;;;6.77;5.50;;;15.20;82.40;;;;;;5047581;28;20041;-79
2022/10/23 11:00:20;;;;;;;9.48;5.93;;;15.30;82.60;;;;;;5062350;28;20287;-84
2022/10/23 11:02:51;;;;;;;7.50;5.30;;;15.30;82.60;;;;;;5050069;28;20088;-84
2022/10/23 11:05:36;;;;;;;8.30;6.32;;;15.30;82.40;;;;;;5069110;28;20033;-83
2022/10/23 11:08:21;;;;;;;7.80;5.57;;;15.30;82.00;;;;;;5056922;28;20048;-83
2022/10/23 11:10:52;;;;;;;5.82;4.75;;;15.40;82.00;;;;;;5038728;28;20055;-84
2022/10/23 11:13:31;;;;;;;7.30;5.35;;;15.40;82.00;;;;;;5035715;28;20045;-84
2022/10/23 11:16:22;;;;;;;7.45;5.40;;;15.40;81.90;;;;;;5069023;28;20128;-84
2022/10/23 11:19:07;;;;;;;8.48;5.15;;;15.40;81.90;;;;;;5049187;28;20041;-83
2022/10/23 11:21:36;;;;;;;6.50;4.70;;;15.40;81.70;;;;;;5068577;28;20443;-83
2022/10/23 11:24:34;;;;;;;8.50;4.63;;;15.40;81.70;;;;;;5035668;28;20106;-84
2022/10/23 11:27:18;;;;;;;7.13;4.70;;;15.40;81.30;;;;;;5039048;28;20041;-84
2022/10/23 11:30:08;;;;;;;9.88;4.40;;;15.50;81.60;;;;;;5027540;28;20037;-84
2022/10/23 11:32:40;;;;;;;10.60;4.93;;;15.50;81.60;;;;;;5037669;28;20051;-84
2022/10/23 11:35:18;;;;;;;6.55;3.88;;;15.50;81.60;;;;;;5053586;28;20037;-82
2022/10/23 11:37:43;;;;;;;5.53;4.07;;;15.50;81.50;;;;;;5052187;28;20037;-83
2022/10/23 11:40:09;;;;;;;6.22;4.65;;;15.50;81.50;;;;;;5047952;28;20040;-84
2022/10/23 11:42:38;;;;;;;6.68;4.03;;;15.60;81.40;;;;;;5069066;28;20400;-83
2022/10/23 11:45:34;;;;;;;10.40;4.47;;;15.60;81.30;;;;;;5068495;28;20110;-84
2022/10/23 11:48:12;;;;;;;7.60;3.83;;;15.60;80.70;;;;;;5035653;28;20130;-83
2022/10/23 11:50:44;;;;;;;8.07;4.05;;;15.60;80.90;;;;;;5050395;28;20067;-83
2022/10/23 11:53:32;;;;;;;10.25;4.70;;;15.60;80.80;;;;;;5035656;28;20048;-83
2022/10/23 11:56:23;;;;;;;8.80;3.95;;;15.70;80.60;;;;;;5035375;28;20037;-83
2022/10/23 11:58:50;;;;;;;8.90;3.67;;;15.70;80.50;;;;;;5051935;28;20076;-84
2022/10/23 12:01:28;;;;;;;8.02;3.92;;;15.70;80.70;;;;;;5068824;28;20064;-83
2022/10/23 12:04:03;;;;;;;7.70;4.18;;;15.70;80.60;;;;;;5058709;28;20048;-82
2022/10/23 12:06:38;;;;;;;10.43;4.60;;;15.70;80.50;;;;;;5048601;28;20472;-83
2022/10/23 12:09:20;;;;;;;8.90;4.07;;;15.70;80.40;;;;;;5063914;28;20446;-87
2022/10/23 12:11:50;;;;;;;6.28;3.88;;;15.70;80.40;;;;;;5039324;28;20041;-85
2022/10/23 12:14:34;;;;;;;6.20;3.75;;;15.70;80.30;;;;;;5064278;28;20037;-83
2022/10/23 12:17:00;;;;;;;6.32;4.07;;;15.80;80.20;;;;;;5050345;28;20346;-82
2022/10/23 12:19:42;;;;;;;5.97;3.50;;;15.80;80.20;;;;;;5049176;28;20469;-86
2022/10/23 12:22:10;;;;;;;8.88;4.25;;;15.80;80.20;;;;;;5048716;28;20061;-86
2022/10/23 12:24:59;;;;;;;9.90;4.40;;;15.80;80.10;;;;;;5048830;28;20095;-84
2022/10/23 12:27:52;;;;;;;9.07;4.10;;;15.80;79.90;;;;;;5049534;28;20045;-82
2022/10/23 12:30:27;;;;;;;6.90;4.40;;;15.80;79.80;;;;;;5028298;28;20045;-83
2022/10/23 12:33:19;;;;;;;5.43;3.40;;;15.80;80.00;;;;;;5048111;28;20032;-84
2022/10/23 12:36:21;;;;;;;7.38;3.92;;;15.90;79.90;;;;;;5081584;28;20033;-83
2022/10/23 12:38:53;;;;;;;6.10;4.03;;;15.80;79.60;;;;;;5010973;28;20105;-83
2022/10/23 12:41:25;;;;;;;10.20;4.60;;;15.80;79.90;;;;;;5048711;28;20048;-84
2022/10/23 12:43:56;;;;;;;11.10;4.05;;;15.80;79.70;;;;;;5049085;28;20174;-84
2022/10/23 12:46:27;;;;;;;6.32;4.00;;;15.80;79.70;;;;;;5048884;28;20120;-83
2022/10/23 12:48:55;;;;;;;9.73;3.60;;;15.80;79.70;;;;;;5063325;28;20040;-84
2022/10/23 12:51:33;;;;;;;6.95;3.70;;;15.80;79.70;;;;;;5079843;28;20064;-84
2022/10/23 12:54:00;;;;;;;8.35;3.30;;;15.80;79.60;;;;;;5033315;28;20186;-84
2022/10/23 12:56:26;;;;;;;7.45;3.28;;;15.80;79.70;;;;;;5046542;28;20135;-84